Terminal Aerodrome Forecast
Issued by NWS

Home | Current Version | Previous Version | Text Only | Print | Product List | Glossary On
Versions: 1 2 3 4 5 6 7 8 9 10 11 12 13 14 15 16 17 18 19 20 21 22 23 24 25 26 27 28 29 30 31 32 33 34 35 36
000
FTUS46 KOTX 211739
TAFCOE
TAF
KCOE 211739Z 2118/2218 09004KT 1SM BR SCT003 BKN035 OVC040
      TEMPO 2118/2120 3SM BR OVC040
     FM212000 12005KT P6SM OVC030
     FM212100 15005KT P6SM VCSH SCT009 OVC015
     FM220300 15009KT 6SM RA BKN010 OVC020
     FM220800 12010KT 6SM -RA SCT007 BKN010 OVC020
     FM221400 24011KT 4SM BR OVC008
      AMD LTD TO CLD AND VIS=

USA.gov is the U.S. government's official web portal to all federal, state and local government web resources and services.